Time;durP1;ratioP1;P1;durP2;ratioP2;P2;SDS_P1;SDS_P2;PMS_P1;PMS_P2;Temp;Humidity;BMP_temperature;BMP_pressure;BME280_temperature;BME280_humidity;BME280_pressure;Samples;Min_cycle;Max_cycle;Signal;HPM_P1;HPM_P2
2023/06/24 00:01:13;;;;;;;7.57;6.60;;;16.70;99.90;;;;;;5003193;28;20199;-65
2023/06/24 00:03:39;;;;;;;7.07;6.37;;;16.70;99.90;;;;;;4995453;28;20696;-65
2023/06/24 00:06:04;;;;;;;6.57;5.97;;;16.70;99.90;;;;;;5003922;28;20205;-65
2023/06/24 00:08:36;;;;;;;6.67;6.03;;;16.60;99.90;;;;;;5011821;28;20171;-65
2023/06/24 00:11:03;;;;;;;6.93;6.33;;;16.60;99.90;;;;;;5012071;28;20179;-65
2023/06/24 00:13:28;;;;;;;7.10;6.50;;;16.60;99.90;;;;;;5009816;28;20466;-65
2023/06/24 00:15:54;;;;;;;7.10;6.40;;;16.50;99.90;;;;;;5004143;28;20441;-65
2023/06/24 00:18:24;;;;;;;6.60;6.10;;;16.60;99.90;;;;;;5011776;28;20175;-65
2023/06/24 00:20:50;;;;;;;7.00;6.30;;;16.60;99.90;;;;;;5011852;28;20495;-65
2023/06/24 00:23:17;;;;;;;7.33;6.63;;;16.50;99.90;;;;;;5011860;28;20465;-65
2023/06/24 00:25:42;;;;;;;6.70;6.20;;;16.40;99.90;;;;;;5011906;28;20171;-65
2023/06/24 00:28:08;;;;;;;8.20;7.50;;;16.30;99.90;;;;;;5004195;28;20803;-65
2023/06/24 00:30:33;;;;;;;6.80;6.30;;;16.20;99.90;;;;;;5005541;28;20186;-65
2023/06/24 00:32:59;;;;;;;6.77;6.27;;;16.20;99.90;;;;;;5010838;28;20346;-65
2023/06/24 00:35:24;;;;;;;7.30;6.73;;;16.20;99.90;;;;;;5004243;28;20190;-65
2023/06/24 00:37:50;;;;;;;7.70;7.10;;;16.30;99.90;;;;;;5015620;28;20179;-65
2023/06/24 00:40:16;;;;;;;7.40;6.70;;;16.30;99.90;;;;;;5015223;28;20171;-65
2023/06/24 00:42:44;;;;;;;7.10;6.50;;;16.30;99.90;;;;;;5010200;28;20202;-65
2023/06/24 00:45:10;;;;;;;7.07;6.40;;;16.30;99.90;;;;;;5010395;28;20503;-65
2023/06/24 00:47:36;;;;;;;9.47;6.70;;;16.30;99.90;;;;;;5015604;28;20426;-65
2023/06/24 00:50:02;;;;;;;7.70;7.00;;;16.30;99.90;;;;;;5015122;28;20965;-65
2023/06/24 00:52:27;;;;;;;7.90;7.20;;;16.30;99.90;;;;;;5015281;28;20171;-65
2023/06/24 00:54:53;;;;;;;7.87;7.13;;;16.30;99.90;;;;;;5015326;28;20929;-65
2023/06/24 00:57:23;;;;;;;6.93;6.27;;;16.30;99.90;;;;;;5004929;28;20222;-65
2023/06/24 00:59:53;;;;;;;6.70;5.83;;;16.30;99.90;;;;;;4976001;28;20220;-65
2023/06/24 01:02:20;;;;;;;7.30;6.67;;;16.30;99.90;;;;;;4976046;28;20596;-65
2023/06/24 01:04:47;;;;;;;8.37;7.50;;;16.20;99.90;;;;;;4958649;28;20790;-65
2023/06/24 01:07:14;;;;;;;6.80;6.30;;;16.20;99.90;;;;;;4976152;28;20411;-65
2023/06/24 01:09:40;;;;;;;8.70;7.93;;;16.30;99.90;;;;;;4981730;28;20536;-65
2023/06/24 01:12:06;;;;;;;7.60;7.00;;;16.30;99.90;;;;;;5006750;28;20426;-65
2023/06/24 01:14:33;;;;;;;7.67;6.97;;;16.40;99.90;;;;;;5014817;28;20461;-65
2023/06/24 01:17:11;;;;;;;8.00;7.30;;;16.40;99.90;;;;;;5014913;28;20451;-65
2023/06/24 01:19:53;;;;;;;7.63;6.83;;;16.40;99.90;;;;;;5014712;28;20430;-65
2023/06/24 01:22:46;;;;;;;7.30;6.70;;;16.20;99.90;;;;;;5012479;28;20465;-65
2023/06/24 01:25:39;;;;;;;7.33;6.63;;;16.10;99.90;;;;;;5005023;28;20437;-65
2023/06/24 01:28:35;;;;;;;7.90;7.20;;;16.00;99.90;;;;;;4997190;28;20788;-65
2023/06/24 01:31:27;;;;;;;7.80;7.03;;;15.90;99.90;;;;;;5014730;28;20457;-65
2023/06/24 01:34:03;;;;;;;7.80;7.20;;;15.80;99.90;;;;;;5014572;28;20442;-65
2023/06/24 01:36:32;;;;;;;7.20;6.60;;;15.80;99.90;;;;;;5004848;28;20442;-65
2023/06/24 01:39:08;;;;;;;7.57;6.87;;;15.80;99.90;;;;;;5000287;28;20485;-65
2023/06/24 01:41:42;;;;;;;7.60;7.00;;;16.00;99.90;;;;;;5004397;28;20454;-65
2023/06/24 01:44:15;;;;;;;8.23;7.53;;;16.00;99.90;;;;;;5014423;28;20529;-64
2023/06/24 01:46:44;;;;;;;7.73;7.13;;;15.90;99.90;;;;;;5014395;28;21095;-65
2023/06/24 01:49:13;;;;;;;9.03;8.23;;;15.80;99.90;;;;;;5014044;28;20417;-65
2023/06/24 01:51:41;;;;;;;7.70;7.07;;;15.60;99.90;;;;;;5003017;28;20499;-65
2023/06/24 01:54:13;;;;;;;9.23;8.40;;;15.60;99.90;;;;;;5008535;28;20453;-65
2023/06/24 01:56:41;;;;;;;9.93;8.93;;;15.70;99.90;;;;;;5014164;28;20410;-65
2023/06/24 01:59:08;;;;;;;8.90;8.03;;;15.60;99.90;;;;;;5013828;28;20849;-65
2023/06/24 02:01:37;;;;;;;11.43;10.33;;;15.60;99.90;;;;;;5014189;28;20461;-65
2023/06/24 02:04:03;;;;;;;10.30;9.30;;;15.50;99.90;;;;;;5007556;28;20463;-65
2023/06/24 02:06:30;;;;;;;9.00;8.07;;;15.40;99.90;;;;;;5003193;28;20510;-65
2023/06/24 02:08:58;;;;;;;9.20;8.40;;;15.40;99.90;;;;;;5013823;28;20865;-65
2023/06/24 02:11:26;;;;;;;8.93;8.03;;;15.50;99.90;;;;;;5013897;28;20834;-65
2023/06/24 02:13:54;;;;;;;9.40;8.50;;;15.50;99.90;;;;;;5013718;28;20548;-65
2023/06/24 02:16:21;;;;;;;8.40;7.70;;;15.60;99.90;;;;;;5013763;28;20899;-65
2023/06/24 02:18:47;;;;;;;8.60;7.70;;;15.60;99.90;;;;;;4986791;28;20496;-65
2023/06/24 02:21:15;;;;;;;12.00;9.53;;;15.60;99.90;;;;;;5005447;28;20450;-65
2023/06/24 02:23:42;;;;;;;9.30;8.47;;;15.60;99.90;;;;;;5013568;28;20450;-65
2023/06/24 02:26:09;;;;;;;9.00;8.10;;;15.60;99.90;;;;;;5013575;28;20437;-65
2023/06/24 02:28:37;;;;;;;7.90;7.20;;;15.60;99.90;;;;;;5013301;28;20452;-65
2023/06/24 02:31:04;;;;;;;8.33;7.53;;;15.50;99.90;;;;;;5013562;28;20426;-65
2023/06/24 02:33:29;;;;;;;8.07;7.30;;;15.50;99.90;;;;;;5001228;28;20462;-65
2023/06/24 02:35:55;;;;;;;9.47;8.47;;;15.50;99.90;;;;;;5013373;28;20794;-65
2023/06/24 02:38:20;;;;;;;8.23;7.43;;;15.50;99.90;;;;;;5013197;28;20179;-65
2023/06/24 02:40:46;;;;;;;8.83;8.13;;;15.60;99.90;;;;;;5013177;28;20606;-65
2023/06/24 02:43:12;;;;;;;9.43;8.70;;;15.60;99.90;;;;;;5013235;28;20266;-65
2023/06/24 02:45:38;;;;;;;9.37;8.53;;;15.60;99.90;;;;;;5010490;28;20684;-65
2023/06/24 02:48:05;;;;;;;8.40;7.70;;;15.60;99.90;;;;;;5004975;28;20174;-65
2023/06/24 02:50:33;;;;;;;9.07;8.30;;;15.40;99.90;;;;;;5002441;28;20774;-65
2023/06/24 02:52:58;;;;;;;9.70;8.80;;;15.40;99.90;;;;;;4992884;28;20447;-65
2023/06/24 02:55:24;;;;;;;9.80;8.73;;;15.40;99.90;;;;;;4993389;28;20446;-65
2023/06/24 02:57:50;;;;;;;9.50;8.60;;;15.30;99.90;;;;;;4993551;28;20168;-65
2023/06/24 03:00:17;;;;;;;8.50;7.80;;;15.40;99.90;;;;;;4992105;28;20438;-65
2023/06/24 03:02:44;;;;;;;10.33;9.40;;;15.30;99.90;;;;;;5003996;28;20475;-65
2023/06/24 03:05:10;;;;;;;8.57;7.83;;;15.30;99.90;;;;;;5012845;28;20410;-65
2023/06/24 03:07:38;;;;;;;8.27;7.57;;;15.30;99.90;;;;;;5012860;28;20422;-65
2023/06/24 03:10:05;;;;;;;8.57;7.87;;;15.20;99.90;;;;;;5012537;28;20505;-65
2023/06/24 03:12:31;;;;;;;8.10;7.40;;;15.10;99.90;;;;;;5003856;28;20470;-65
2023/06/24 03:14:56;;;;;;;8.70;7.90;;;15.00;99.90;;;;;;5004822;28;20453;-65
2023/06/24 03:17:22;;;;;;;8.40;7.70;;;15.00;99.90;;;;;;5012757;28;20437;-65
2023/06/24 03:19:48;;;;;;;9.57;8.00;;;15.10;99.90;;;;;;5012376;28;20181;-65
2023/06/24 03:22:13;;;;;;;8.53;7.70;;;15.10;99.90;;;;;;5012365;28;20234;-65
2023/06/24 03:24:39;;;;;;;9.17;8.37;;;15.20;99.90;;;;;;5003353;28;20270;-64
2023/06/24 03:27:04;;;;;;;7.83;7.13;;;15.20;99.90;;;;;;5004382;28;20175;-65
2023/06/24 03:29:30;;;;;;;8.67;7.17;;;15.20;99.90;;;;;;5012249;28;20182;-65
2023/06/24 03:31:55;;;;;;;8.27;7.57;;;15.20;99.90;;;;;;5012528;28;20183;-65
2023/06/24 03:34:21;;;;;;;8.10;7.40;;;15.10;99.90;;;;;;5012450;28;20199;-65
2023/06/24 03:36:46;;;;;;;8.17;7.57;;;15.10;99.90;;;;;;5012477;28;20186;-65
2023/06/24 03:39:12;;;;;;;8.27;7.57;;;15.00;99.90;;;;;;5002734;28;20225;-65
2023/06/24 03:41:38;;;;;;;8.40;6.57;;;15.00;99.90;;;;;;5004195;28;20630;-65
2023/06/24 03:44:04;;;;;;;9.83;8.93;;;15.00;99.90;;;;;;5012430;28;20203;-65
2023/06/24 03:46:32;;;;;;;9.30;8.60;;;15.10;99.90;;;;;;5012305;28;20433;-65
2023/06/24 03:48:58;;;;;;;8.57;7.87;;;15.20;99.90;;;;;;5012083;28;20175;-65
2023/06/24 03:51:24;;;;;;;8.57;7.77;;;15.30;99.90;;;;;;5012097;28;20434;-65
2023/06/24 03:53:50;;;;;;;8.70;7.90;;;15.50;99.90;;;;;;5008955;28;20911;-65
2023/06/24 03:56:15;;;;;;;9.03;7.93;;;15.50;99.90;;;;;;4998264;28;20180;-65
2023/06/24 03:58:41;;;;;;;8.30;7.60;;;15.50;99.90;;;;;;5002648;28;20426;-65
2023/06/24 04:01:06;;;;;;;8.33;7.53;;;15.50;99.90;;;;;;5012075;28;20531;-65
2023/06/24 04:03:32;;;;;;;8.50;7.60;;;15.60;99.90;;;;;;5016223;28;20194;-65
2023/06/24 04:05:58;;;;;;;8.60;7.13;;;15.70;99.90;;;;;;5018567;28;20717;-64
2023/06/24 04:08:29;;;;;;;8.17;7.37;;;15.70;99.90;;;;;;5018263;28;20198;-65
2023/06/24 04:10:55;;;;;;;8.50;7.70;;;15.70;99.90;;;;;;5010285;28;20182;-65
2023/06/24 04:13:20;;;;;;;8.47;7.60;;;15.90;99.90;;;;;;5010092;28;20477;-65
2023/06/24 04:15:46;;;;;;;8.40;7.70;;;16.00;99.90;;;;;;5010326;28;20919;-65
2023/06/24 04:18:11;;;;;;;7.63;7.03;;;16.00;99.90;;;;;;5018286;28;20182;-66
2023/06/24 04:20:37;;;;;;;7.87;7.17;;;16.10;99.90;;;;;;5018331;28;20244;-65
2023/06/24 04:23:03;;;;;;;8.87;8.07;;;16.20;99.90;;;;;;5018423;28;20200;-65
2023/06/24 04:25:29;;;;;;;8.27;7.57;;;16.30;99.90;;;;;;5000770;28;20170;-65
2023/06/24 04:27:55;;;;;;;8.10;7.40;;;16.40;99.90;;;;;;5008419;28;20472;-65
2023/06/24 04:30:20;;;;;;;8.50;7.80;;;16.40;99.90;;;;;;5001759;28;20438;-65
2023/06/24 04:32:46;;;;;;;8.80;7.07;;;16.60;99.90;;;;;;5009694;28;20190;-65
2023/06/24 04:35:11;;;;;;;8.90;8.00;;;16.70;99.90;;;;;;5008537;28;20183;-65
2023/06/24 04:37:37;;;;;;;8.43;7.33;;;16.80;99.90;;;;;;5016684;28;20604;-65
2023/06/24 04:40:03;;;;;;;8.93;8.13;;;17.00;99.90;;;;;;5018099;28;20175;-65
2023/06/24 04:42:29;;;;;;;8.23;7.43;;;17.10;99.90;;;;;;5018200;28;20211;-65
2023/06/24 04:44:55;;;;;;;8.10;7.30;;;17.20;99.90;;;;;;5008632;28;20568;-65
2023/06/24 04:47:21;;;;;;;7.73;7.10;;;17.40;99.90;;;;;;5010132;28;20900;-65
2023/06/24 04:49:46;;;;;;;8.83;7.23;;;17.60;99.90;;;;;;5017874;28;20633;-65
2023/06/24 04:52:12;;;;;;;8.47;7.57;;;17.80;99.90;;;;;;5018220;28;20183;-65
2023/06/24 04:54:38;;;;;;;9.57;7.63;;;18.00;99.90;;;;;;5018316;28;20171;-65
2023/06/24 04:57:09;;;;;;;7.87;7.10;;;18.00;99.90;;;;;;5014081;28;20437;-65
2023/06/24 04:59:34;;;;;;;8.10;7.30;;;18.10;99.90;;;;;;5009704;28;20174;-65
2023/06/24 05:02:00;;;;;;;12.87;7.30;;;18.10;99.90;;;;;;5018064;28;20453;-65
2023/06/24 05:04:25;;;;;;;8.50;7.60;;;18.10;99.90;;;;;;5018029;28;20191;-65
2023/06/24 05:06:51;;;;;;;8.53;7.73;;;17.90;99.90;;;;;;5018181;28;20163;-65
2023/06/24 05:09:17;;;;;;;8.77;7.97;;;17.70;99.90;;;;;;5005823;28;20187;-65
2023/06/24 05:11:42;;;;;;;8.73;7.83;;;17.60;99.90;;;;;;5004801;28;20196;-65
2023/06/24 05:14:08;;;;;;;8.13;7.43;;;17.60;99.90;;;;;;5018391;23;20553;-74
2023/06/24 05:16:34;;;;;;;8.80;8.00;;;17.70;99.90;;;;;;5003481;28;20167;-74
2023/06/24 05:18:59;;;;;;;10.13;7.93;;;17.80;99.90;;;;;;4994954;28;20660;-74
2023/06/24 05:21:25;;;;;;;8.70;7.77;;;18.00;99.90;;;;;;4995235;28;20573;-74
2023/06/24 05:23:50;;;;;;;9.30;8.60;;;18.20;99.90;;;;;;4977746;28;20726;-75
2023/06/24 05:26:16;;;;;;;8.83;7.20;;;18.30;99.90;;;;;;4993697;28;20176;-75
2023/06/24 05:28:41;;;;;;;8.70;8.00;;;18.30;99.90;;;;;;5004522;28;20186;-73
2023/06/24 05:31:07;;;;;;;8.93;8.13;;;18.40;99.90;;;;;;5014783;28;20179;-73
2023/06/24 05:33:32;;;;;;;8.57;7.70;;;18.50;99.90;;;;;;5014584;28;20223;-73
2023/06/24 05:35:58;;;;;;;9.23;8.53;;;18.80;99.90;;;;;;5014636;28;20595;-73
2023/06/24 05:38:23;;;;;;;7.13;6.53;;;18.90;99.90;;;;;;5014450;28;20182;-73
2023/06/24 05:40:49;;;;;;;7.57;6.93;;;19.10;99.90;;;;;;5014449;28;20195;-72
2023/06/24 05:43:14;;;;;;;8.00;7.30;;;19.30;99.90;;;;;;5007705;28;20569;-73
2023/06/24 05:45:40;;;;;;;7.20;6.70;;;19.40;99.90;;;;;;5005070;28;20554;-73
2023/06/24 05:48:05;;;;;;;7.90;7.17;;;19.60;99.90;;;;;;5014522;28;20177;-73
2023/06/24 05:50:31;;;;;;;7.70;7.10;;;19.70;99.90;;;;;;5014296;28;20221;-73
2023/06/24 05:52:57;;;;;;;6.67;6.07;;;19.80;99.90;;;;;;5014152;28;20226;-75
2023/06/24 05:55:23;;;;;;;7.63;7.07;;;19.90;99.90;;;;;;5014263;28;20174;-75
2023/06/24 05:57:48;;;;;;;9.90;8.90;;;19.90;99.90;;;;;;5014263;28;20800;-75
2023/06/24 06:00:14;;;;;;;7.60;6.90;;;20.00;99.90;;;;;;5000801;28;20191;-75
2023/06/24 06:02:39;;;;;;;6.27;5.73;;;20.20;99.90;;;;;;5004439;28;20203;-75
2023/06/24 06:05:05;;;;;;;6.80;6.30;;;20.20;99.90;;;;;;5014280;28;20163;-75
2023/06/24 06:07:31;;;;;;;5.93;5.43;;;20.10;99.90;;;;;;5014098;28;20874;-74
2023/06/24 06:09:56;;;;;;;6.40;5.90;;;20.10;99.90;;;;;;5013747;28;20242;-74
2023/06/24 06:12:22;;;;;;;8.57;7.77;;;20.20;99.90;;;;;;5013857;28;20197;-75
2023/06/24 06:14:47;;;;;;;8.97;6.60;;;20.50;99.90;;;;;;5013840;28;20245;-75
2023/06/24 06:17:14;;;;;;;6.97;6.27;;;20.60;99.90;;;;;;5007457;28;20183;-74
2023/06/24 06:19:41;;;;;;;6.23;5.73;;;20.70;99.90;;;;;;5005155;28;20175;-75
2023/06/24 06:22:07;;;;;;;7.70;5.60;;;20.70;99.90;;;;;;5001796;28;20466;-74
2023/06/24 06:24:33;;;;;;;6.23;5.63;;;20.80;99.90;;;;;;5011431;28;20537;-75
2023/06/24 06:26:59;;;;;;;6.13;5.53;;;20.90;99.90;;;;;;5012510;28;20505;-75
2023/06/24 06:29:24;;;;;;;5.73;5.30;;;21.00;99.90;;;;;;5013366;28;20163;-73
2023/06/24 06:31:50;;;;;;;5.90;5.40;;;21.10;99.90;;;;;;5006561;28;20183;-75
2023/06/24 06:34:15;;;;;;;5.80;5.10;;;21.40;99.90;;;;;;4985588;28;20214;-74
2023/06/24 06:36:41;;;;;;;6.90;5.13;;;21.40;99.90;;;;;;4988678;28;20191;-74
2023/06/24 06:39:06;;;;;;;5.63;5.00;;;21.40;99.90;;;;;;4991544;28;20182;-74
2023/06/24 06:41:32;;;;;;;5.80;5.30;;;21.60;99.90;;;;;;4976788;28;20752;-73
2023/06/24 06:43:57;;;;;;;5.87;5.30;;;21.60;99.90;;;;;;4975531;28;20246;-69
2023/06/24 06:46:23;;;;;;;5.33;4.43;;;21.60;99.90;;;;;;4993642;28;20217;-69
2023/06/24 06:48:48;;;;;;;4.47;4.17;;;21.50;99.90;;;;;;4992357;28;20186;-69
2023/06/24 06:51:14;;;;;;;5.33;4.80;;;21.60;99.90;;;;;;5000227;28;20183;-69
2023/06/24 06:53:39;;;;;;;5.33;4.70;;;21.80;99.90;;;;;;4986060;28;20337;-69
2023/06/24 06:56:05;;;;;;;6.13;5.10;;;22.10;99.90;;;;;;5013263;28;20175;-69
2023/06/24 06:58:31;;;;;;;6.30;5.80;;;22.20;99.90;;;;;;5012981;28;20171;-72
2023/06/24 07:01:01;;;;;;;5.70;5.20;;;22.10;99.90;;;;;;5013002;28;20199;-72
2023/06/24 07:03:27;;;;;;;5.50;5.10;;;22.10;99.90;;;;;;5007696;28;20219;-71
2023/06/24 07:05:53;;;;;;;4.87;4.47;;;22.30;99.90;;;;;;5004849;28;20504;-72
2023/06/24 07:08:18;;;;;;;6.10;5.00;;;22.50;99.90;;;;;;5013330;28;20560;-77
2023/06/24 07:10:44;;;;;;;5.23;4.77;;;22.70;99.90;;;;;;5012735;28;20266;-74
2023/06/24 07:13:10;;;;;;;5.63;5.13;;;23.10;99.90;;;;;;4973701;28;20211;-74
2023/06/24 07:15:35;;;;;;;5.27;4.77;;;23.40;98.80;;;;;;4973647;28;20173;-74
2023/06/24 07:18:01;;;;;;;5.43;5.03;;;23.60;98.60;;;;;;4973638;28;20176;-71
2023/06/24 07:20:26;;;;;;;5.90;5.00;;;23.80;98.10;;;;;;4980399;28;20187;-71
2023/06/24 07:22:52;;;;;;;5.23;4.73;;;24.00;96.40;;;;;;5007259;28;20572;-72
2023/06/24 07:25:17;;;;;;;5.07;4.67;;;24.20;95.40;;;;;;5008254;28;20675;-74
2023/06/24 07:27:43;;;;;;;4.50;4.10;;;24.30;94.20;;;;;;5012801;28;20171;-74
2023/06/24 07:30:08;;;;;;;4.50;4.10;;;24.50;93.90;;;;;;5012299;28;20166;-71
2023/06/24 07:32:34;;;;;;;4.53;4.23;;;24.50;92.40;;;;;;5011329;28;20183;-71
2023/06/24 07:34:59;;;;;;;6.80;6.20;;;24.60;92.00;;;;;;5003588;28;20213;-72
2023/06/24 07:37:25;;;;;;;5.37;4.90;;;24.60;92.80;;;;;;4992011;28;20187;-74
2023/06/24 07:39:51;;;;;;;6.83;6.23;;;24.70;92.20;;;;;;4975862;28;20530;-72
2023/06/24 07:42:18;;;;;;;5.93;4.57;;;25.00;91.30;;;;;;4971576;28;20470;-73
2023/06/24 07:44:47;;;;;;;5.70;5.30;;;25.10;90.80;;;;;;4971918;28;20756;-73
2023/06/24 07:47:13;;;;;;;5.70;5.20;;;25.20;91.40;;;;;;4972464;28;20423;-73
2023/06/24 07:49:39;;;;;;;6.20;5.70;;;25.30;90.40;;;;;;4972863;28;20424;-72
2023/06/24 07:52:04;;;;;;;6.03;5.53;;;24.90;91.00;;;;;;4997418;28;20186;-72
2023/06/24 07:54:30;;;;;;;5.30;4.43;;;25.10;90.40;;;;;;5009673;28;20238;-73
2023/06/24 07:56:56;;;;;;;5.77;5.03;;;25.20;89.90;;;;;;5001535;28;20600;-76
2023/06/24 07:59:21;;;;;;;5.07;4.63;;;25.80;88.10;;;;;;4975578;28;20535;-66
2023/06/24 08:01:47;;;;;;;5.67;5.17;;;26.20;86.20;;;;;;4974883;28;20204;-66
2023/06/24 08:04:13;;;;;;;5.20;4.80;;;26.60;83.80;;;;;;4972603;28;20282;-66
2023/06/24 08:06:39;;;;;;;6.07;5.63;;;26.70;82.10;;;;;;4972594;28;20175;-66
2023/06/24 08:09:05;;;;;;;6.40;5.80;;;26.80;80.10;;;;;;4998275;28;20437;-66
2023/06/24 08:11:30;;;;;;;5.90;5.47;;;26.30;80.70;;;;;;5003822;28;20419;-66
2023/06/24 08:13:56;;;;;;;4.90;4.50;;;26.10;82.20;;;;;;5011874;28;20261;-66
2023/06/24 08:16:21;;;;;;;5.60;5.10;;;26.60;81.80;;;;;;5012287;28;20250;-66
2023/06/24 08:18:47;;;;;;;5.47;5.07;;;27.30;79.20;;;;;;5011772;28;20183;-66
2023/06/24 08:21:12;;;;;;;6.23;5.73;;;27.50;76.30;;;;;;5012122;28;20762;-66
2023/06/24 08:23:38;;;;;;;5.57;5.10;;;27.70;75.50;;;;;;5000391;28;20204;-66
2023/06/24 08:26:04;;;;;;;5.03;4.73;;;27.70;73.80;;;;;;5003781;28;20163;-66
2023/06/24 08:28:29;;;;;;;6.00;4.50;;;27.90;73.10;;;;;;5011627;28;20194;-66
2023/06/24 08:30:55;;;;;;;5.33;4.93;;;28.00;72.70;;;;;;5012076;28;20252;-66
2023/06/24 08:33:20;;;;;;;5.77;5.20;;;27.80;71.80;;;;;;5011828;28;20194;-66
2023/06/24 08:35:46;;;;;;;5.57;5.07;;;27.40;70.10;;;;;;5012029;28;20197;-66
2023/06/24 08:38:11;;;;;;;5.30;4.90;;;27.10;72.20;;;;;;5011684;28;20215;-66
2023/06/24 08:40:39;;;;;;;5.20;4.70;;;27.20;71.70;;;;;;5006535;28;20199;-66
2023/06/24 08:43:06;;;;;;;5.20;4.80;;;27.50;70.10;;;;;;5003575;28;20197;-66
2023/06/24 08:45:31;;;;;;;5.00;4.63;;;27.70;69.00;;;;;;5002004;28;20438;-66
2023/06/24 08:48:00;;;;;;;5.87;5.37;;;28.20;69.20;;;;;;5004740;28;20796;-66
2023/06/24 08:50:30;;;;;;;5.97;5.57;;;28.30;67.70;;;;;;5013492;28;20175;-66
2023/06/24 08:52:56;;;;;;;5.20;4.80;;;28.70;67.70;;;;;;5015368;28;20500;-66
2023/06/24 08:55:26;;;;;;;6.20;5.70;;;29.10;65.30;;;;;;5015407;28;20829;-66
2023/06/24 08:57:52;;;;;;;5.60;5.20;;;28.60;64.20;;;;;;5013644;28;20528;-66
2023/06/24 09:00:18;;;;;;;5.77;4.30;;;28.80;64.70;;;;;;5006728;28;20873;-66
2023/06/24 09:02:43;;;;;;;5.70;5.30;;;29.10;64.40;;;;;;5014363;28;20198;-66
2023/06/24 09:05:09;;;;;;;5.03;4.63;;;29.30;64.10;;;;;;5015227;28;20193;-66
2023/06/24 09:07:34;;;;;;;4.53;4.23;;;29.50;59.70;;;;;;5015340;28;20251;-66
2023/06/24 09:10:00;;;;;;;4.77;4.47;;;29.30;57.90;;;;;;5014872;28;20171;-66
2023/06/24 09:12:26;;;;;;;6.07;5.57;;;29.50;57.50;;;;;;5014988;28;20198;-66
2023/06/24 09:14:52;;;;;;;5.23;4.83;;;29.80;57.50;;;;;;5009224;28;20241;-66
2023/06/24 09:17:21;;;;;;;5.73;5.33;;;29.90;57.40;;;;;;5006819;28;20835;-66
2023/06/24 09:19:47;;;;;;;5.03;4.33;;;30.10;55.60;;;;;;5014735;28;20183;-66
2023/06/24 09:22:17;;;;;;;4.57;4.17;;;29.80;55.20;;;;;;5014729;28;20461;-67
2023/06/24 09:24:47;;;;;;;4.83;4.43;;;29.50;55.00;;;;;;5014748;28;20197;-66
2023/06/24 09:27:19;;;;;;;4.67;4.27;;;29.50;56.60;;;;;;5014761;28;20959;-66
2023/06/24 09:29:47;;;;;;;5.17;4.77;;;29.90;55.10;;;;;;5014400;28;20468;-66
2023/06/24 09:32:12;;;;;;;5.97;5.37;;;30.10;53.70;;;;;;5004102;28;20438;-66
2023/06/24 09:34:38;;;;;;;5.50;5.03;;;30.40;54.20;;;;;;5012905;28;20437;-66
2023/06/24 09:37:04;;;;;;;4.93;4.40;;;30.30;53.50;;;;;;5014597;28;20179;-67
2023/06/24 09:39:36;;;;;;;4.97;4.57;;;30.30;53.60;;;;;;5014238;28;20561;-66
2023/06/24 09:42:04;;;;;;;5.70;5.30;;;30.40;52.70;;;;;;5014510;28;20199;-67
2023/06/24 09:44:29;;;;;;;5.70;5.17;;;30.30;52.70;;;;;;5014288;28;20488;-66
2023/06/24 09:46:56;;;;;;;4.97;4.60;;;29.80;52.80;;;;;;5008041;28;20840;-66
2023/06/24 09:49:22;;;;;;;5.23;4.83;;;29.50;53.50;;;;;;4998610;28;20552;-66
2023/06/24 09:51:56;;;;;;;6.80;6.20;;;30.10;53.50;;;;;;5013385;28;20434;-67
2023/06/24 09:54:24;;;;;;;4.80;4.40;;;30.90;53.00;;;;;;5014417;28;20440;-66
2023/06/24 09:56:50;;;;;;;5.07;4.67;;;31.80;51.10;;;;;;5014282;28;20436;-66
2023/06/24 09:59:21;;;;;;;7.60;4.70;;;32.20;48.20;;;;;;5013780;28;20432;-66
2023/06/24 10:01:47;;;;;;;5.23;4.83;;;31.90;48.20;;;;;;5013878;28;20461;-67
2023/06/24 10:04:20;;;;;;;4.90;4.37;;;31.40;47.80;;;;;;4992808;28;20532;-66
2023/06/24 10:06:46;;;;;;;5.60;4.40;;;30.90;48.80;;;;;;5005212;28;20517;-67
2023/06/24 10:09:16;;;;;;;4.93;3.90;;;31.30;48.50;;;;;;5013788;28;21001;-67
2023/06/24 10:11:44;;;;;;;4.60;4.30;;;32.00;47.40;;;;;;5014197;28;20498;-67
2023/06/24 10:14:09;;;;;;;5.07;4.67;;;32.60;45.80;;;;;;5013646;28;20998;-66
2023/06/24 10:16:35;;;;;;;5.43;5.13;;;33.40;45.30;;;;;;5013912;28;20429;-67
2023/06/24 10:19:02;;;;;;;4.43;4.13;;;32.60;45.10;;;;;;5013679;28;20214;-67
2023/06/24 10:21:49;;;;;;;4.30;3.90;;;32.70;44.50;;;;;;5002054;28;20734;-66
2023/06/24 10:24:30;;;;;;;3.40;3.20;;;32.90;42.30;;;;;;4997324;28;20882;-67
2023/06/24 10:27:04;;;;;;;4.10;3.90;;;34.20;41.00;;;;;;4994028;28;20411;-67
2023/06/24 10:29:35;;;;;;;4.20;3.90;;;34.70;40.20;;;;;;4993879;28;20410;-67
2023/06/24 10:32:06;;;;;;;4.10;3.90;;;35.10;37.70;;;;;;4997156;28;20427;-67
2023/06/24 10:34:37;;;;;;;4.67;4.27;;;35.10;37.70;;;;;;5002754;28;20449;-67
2023/06/24 10:37:04;;;;;;;3.77;3.47;;;35.70;36.50;;;;;;5007449;28;20830;-67
2023/06/24 10:39:48;;;;;;;3.70;3.40;;;35.60;35.50;;;;;;5005163;28;20851;-67
2023/06/24 10:42:34;;;;;;;3.83;3.53;;;36.40;35.60;;;;;;5013458;28;20588;-67
2023/06/24 10:45:08;;;;;;;4.00;3.70;;;36.40;35.50;;;;;;5004501;28;20449;-67
2023/06/24 10:47:34;;;;;;;3.80;3.60;;;36.20;34.40;;;;;;5005052;28;20923;-67
2023/06/24 10:50:00;;;;;;;4.93;3.80;;;36.50;34.20;;;;;;5012959;28;20480;-67
2023/06/24 10:52:25;;;;;;;4.17;3.87;;;36.50;32.40;;;;;;5013196;28;20199;-67
2023/06/24 10:54:52;;;;;;;4.53;4.13;;;37.40;33.10;;;;;;5013328;28;20190;-67
2023/06/24 10:57:25;;;;;;;5.40;4.33;;;38.50;33.60;;;;;;5013135;28;20175;-67
2023/06/24 10:59:53;;;;;;;5.17;4.67;;;38.40;33.20;;;;;;4998166;28;20813;-67
2023/06/24 11:02:26;;;;;;;4.53;4.27;;;38.00;33.10;;;;;;5008751;28;20535;-67
2023/06/24 11:04:54;;;;;;;3.87;3.57;;;36.80;33.40;;;;;;5013218;28;20422;-67
2023/06/24 11:07:27;;;;;;;4.73;4.33;;;37.20;34.00;;;;;;5013032;28;20479;-67
2023/06/24 11:09:55;;;;;;;5.07;4.67;;;37.00;34.50;;;;;;5012831;28;20422;-67
2023/06/24 11:12:26;;;;;;;4.73;4.43;;;37.60;34.20;;;;;;5007175;28;20438;-67
2023/06/24 11:14:55;;;;;;;4.33;4.00;;;38.10;34.10;;;;;;4993995;28;20453;-67
2023/06/24 11:17:20;;;;;;;4.77;4.40;;;38.10;34.20;;;;;;4993339;28;20477;-66
2023/06/24 11:19:46;;;;;;;4.30;4.00;;;36.70;35.00;;;;;;4993010;28;20422;-67
2023/06/24 11:22:12;;;;;;;3.70;3.50;;;37.00;35.20;;;;;;4993118;28;20298;-67
2023/06/24 11:24:39;;;;;;;4.53;4.23;;;38.20;35.50;;;;;;4992510;28;20187;-67
2023/06/24 11:27:05;;;;;;;3.97;3.73;;;38.40;34.30;;;;;;5005548;28;20270;-67
2023/06/24 11:29:32;;;;;;;5.00;4.60;;;38.40;34.50;;;;;;5004105;28;20422;-67
2023/06/24 11:31:58;;;;;;;4.53;4.23;;;39.10;34.00;;;;;;5012523;28;20986;-67
2023/06/24 11:34:23;;;;;;;4.30;4.00;;;38.20;32.70;;;;;;5012390;28;20445;-67
2023/06/24 11:36:49;;;;;;;4.40;4.10;;;37.80;34.20;;;;;;5012483;28;20174;-67
2023/06/24 11:39:25;;;;;;;4.13;3.93;;;37.60;34.00;;;;;;5000784;28;20168;-67
2023/06/24 11:41:52;;;;;;;4.80;4.50;;;37.90;33.70;;;;;;4992950;28;20634;-66
2023/06/24 11:44:23;;;;;;;4.33;4.03;;;39.30;32.80;;;;;;4992855;28;20908;-67
2023/06/24 11:46:48;;;;;;;4.83;4.47;;;39.60;32.80;;;;;;4992962;28;20553;-67
2023/06/24 11:49:15;;;;;;;5.00;4.70;;;40.70;33.00;;;;;;4992504;28;20501;-67
2023/06/24 11:51:50;;;;;;;5.90;5.50;;;41.10;31.30;;;;;;4992797;28;20693;-68
2023/06/24 11:54:19;;;;;;;5.00;4.73;;;41.50;31.20;;;;;;4992840;28;20473;-67
2023/06/24 11:56:50;;;;;;;4.50;4.20;;;41.60;30.80;;;;;;4998094;28;20429;-67
2023/06/24 11:59:22;;;;;;;4.27;4.00;;;41.80;30.90;;;;;;5007269;28;20433;-67
2023/06/24 12:01:59;;;;;;;5.00;4.70;;;42.40;29.70;;;;;;5012242;28;20504;-67
2023/06/24 12:04:29;;;;;;;5.00;4.70;;;43.00;29.80;;;;;;5011971;28;20468;-68
2023/06/24 12:06:54;;;;;;;4.53;4.13;;;41.10;30.00;;;;;;5012164;28;20519;-67
2023/06/24 12:09:20;;;;;;;4.63;4.33;;;40.50;30.30;;;;;;5011927;28;20464;-67
2023/06/24 12:11:45;;;;;;;5.00;4.70;;;40.80;30.00;;;;;;5004939;28;20194;-67
2023/06/24 12:14:11;;;;;;;5.43;5.03;;;40.60;30.00;;;;;;4999891;28;20633;-67
2023/06/24 12:16:38;;;;;;;5.10;4.80;;;41.80;29.80;;;;;;5010280;28;20245;-67
2023/06/24 12:19:04;;;;;;;4.67;4.37;;;42.90;29.60;;;;;;5011688;28;20182;-67
2023/06/24 12:21:29;;;;;;;5.07;4.67;;;42.80;29.20;;;;;;5012144;28;20469;-68
2023/06/24 12:23:55;;;;;;;5.57;4.53;;;42.40;29.10;;;;;;5013309;28;20220;-68
2023/06/24 12:26:20;;;;;;;4.53;4.23;;;41.90;29.30;;;;;;5014212;28;20171;-67
2023/06/24 12:28:46;;;;;;;5.03;4.63;;;40.40;29.50;;;;;;5007442;28;20179;-67
2023/06/24 12:31:11;;;;;;;4.37;4.17;;;39.30;29.90;;;;;;5015869;28;20179;-67
2023/06/24 12:33:37;;;;;;;4.67;4.40;;;39.60;29.70;;;;;;5015731;28;20198;-68
2023/06/24 12:36:03;;;;;;;4.93;4.53;;;40.00;29.50;;;;;;5015970;28;20186;-67
2023/06/24 12:38:28;;;;;;;4.70;4.47;;;40.90;29.50;;;;;;5015426;28;20274;-68
2023/06/24 12:40:54;;;;;;;4.53;4.20;;;42.10;28.80;;;;;;5015524;28;20198;-68
2023/06/24 12:43:19;;;;;;;4.50;4.20;;;43.50;28.40;;;;;;5005543;28;20258;-67
2023/06/24 12:45:45;;;;;;;4.20;3.93;;;41.80;28.80;;;;;;5007502;28;20179;-67